Time;durP1;ratioP1;P1;durP2;ratioP2;P2;SDS_P1;SDS_P2;PMS_P1;PMS_P2;Temp;Humidity;BMP_temperature;BMP_pressure;BME280_temperature;BME280_humidity;BME280_pressure;Samples;Min_cycle;Max_cycle;Signal;HPM_P1;HPM_P2
2023/10/18 00:02:05;;;;;;;2.83;0.93;;;18.80;99.90;;;;;;5001465;28;20605;-78
2023/10/18 00:04:47;;;;;;;3.15;0.98;;;19.00;99.90;;;;;;5005317;28;20198;-79
2023/10/18 00:07:34;;;;;;;2.08;0.80;;;19.00;99.90;;;;;;5003806;28;20218;-78
2023/10/18 00:16:25;;;;;;;3.42;0.70;;;19.00;99.90;;;;;;5010626;28;20569;-79
2023/10/18 00:19:13;;;;;;;1.95;0.70;;;18.90;99.90;;;;;;5010664;28;20633;-79
2023/10/18 00:22:03;;;;;;;3.70;0.47;;;19.00;99.90;;;;;;5011486;28;20202;-80
2023/10/18 00:24:44;;;;;;;6.43;0.95;;;19.10;99.90;;;;;;4998884;28;20728;-79
2023/10/18 00:27:34;;;;;;;2.65;0.57;;;19.20;99.90;;;;;;4993351;28;20222;-80
2023/10/18 00:30:20;;;;;;;1.95;0.57;;;19.20;99.90;;;;;;5008403;28;20228;-80
2023/10/18 00:32:53;;;;;;;3.83;0.63;;;19.20;99.90;;;;;;4989898;28;20198;-78
2023/10/18 00:35:31;;;;;;;2.00;0.60;;;19.40;99.90;;;;;;5008986;28;20270;-77
2023/10/18 00:38:18;;;;;;;4.13;0.60;;;19.50;99.90;;;;;;5013191;28;20669;-77
2023/10/18 00:41:07;;;;;;;1.63;0.60;;;19.60;99.90;;;;;;5014117;28;20696;-77
2023/10/18 00:43:46;;;;;;;1.92;0.80;;;19.60;99.90;;;;;;5006169;28;20225;-77
2023/10/18 00:46:28;;;;;;;1.40;0.47;;;19.80;99.90;;;;;;5010805;28;20740;-78
2023/10/18 00:49:54;;;;;;;2.03;0.45;;;20.10;99.90;;;;;;5005038;28;20284;-78
2023/10/18 00:52:30;;;;;;;1.58;0.57;;;20.30;99.90;;;;;;5014453;28;20256;-78
2023/10/18 00:55:13;;;;;;;1.23;0.50;;;20.40;99.90;;;;;;5026015;28;20225;-79
2023/10/18 00:57:47;;;;;;;3.22;0.70;;;20.50;99.90;;;;;;5032802;28;20241;-79
2023/10/18 01:00:26;;;;;;;2.20;0.57;;;20.50;99.90;;;;;;5023540;28;20213;-79
2023/10/18 01:06:57;;;;;;;2.75;0.60;;;20.50;99.90;;;;;;4992187;28;20554;-78
2023/10/18 01:09:28;;;;;;;4.40;0.52;;;20.60;99.90;;;;;;5010808;28;20206;-79
2023/10/18 01:12:23;;;;;;;2.30;0.68;;;20.70;99.90;;;;;;5011313;28;20305;-79
2023/10/18 01:15:27;;;;;;;2.88;0.60;;;20.80;99.90;;;;;;5007994;28;20324;-79
2023/10/18 01:21:26;;;;;;;3.00;0.57;;;20.90;99.90;;;;;;4991830;28;20203;-78
2023/10/18 01:24:14;;;;;;;1.88;0.40;;;20.90;99.90;;;;;;5006068;28;20252;-78
2023/10/18 01:26:52;;;;;;;4.25;0.75;;;20.80;99.90;;;;;;5012954;28;20237;-80
2023/10/18 01:29:25;;;;;;;2.53;0.73;;;20.90;99.90;;;;;;5014206;28;20611;-80
2023/10/18 01:32:04;;;;;;;1.80;0.60;;;21.00;99.90;;;;;;5013081;28;20202;-79
2023/10/18 01:37:29;;;;;;;2.40;0.50;;;21.10;99.90;;;;;;5003289;28;20202;-80
2023/10/18 01:43:00;;;;;;;1.63;0.60;;;21.40;99.90;;;;;;5015807;28;20210;-79
2023/10/18 01:45:41;;;;;;;1.95;0.60;;;21.40;99.90;;;;;;5015626;28;20290;-77
2023/10/18 01:48:26;;;;;;;2.58;0.60;;;21.30;99.90;;;;;;5015263;28;20229;-78
2023/10/18 01:51:01;;;;;;;2.88;0.73;;;21.10;99.90;;;;;;5015927;28;20201;-80
2023/10/18 01:53:31;;;;;;;4.55;0.68;;;21.10;99.90;;;;;;5017173;28;20731;-79
2023/10/18 01:56:03;;;;;;;3.20;0.60;;;21.30;99.90;;;;;;5013289;28;20264;-79
2023/10/18 01:59:19;;;;;;;2.08;0.52;;;21.30;99.90;;;;;;5003647;28;20202;-79
2023/10/18 02:02:24;;;;;;;2.83;0.60;;;21.20;99.90;;;;;;5000697;28;20221;-78
2023/10/18 02:08:23;;;;;;;3.10;0.60;;;21.40;99.90;;;;;;5009940;28;20229;-79
2023/10/18 02:10:59;;;;;;;7.03;1.05;;;21.80;99.90;;;;;;5005749;28;20214;-79
2023/10/18 02:13:50;;;;;;;1.77;0.55;;;21.90;99.90;;;;;;5014250;28;20194;-79
2023/10/18 02:16:37;;;;;;;2.63;0.55;;;21.90;99.90;;;;;;5014385;28;20232;-79
2023/10/18 02:19:31;;;;;;;2.42;1.13;;;22.10;99.90;;;;;;5013737;28;20631;-79
2023/10/18 02:22:27;;;;;;;3.65;0.70;;;22.30;99.90;;;;;;5012323;28;20198;-79
2023/10/18 02:25:08;;;;;;;2.65;0.50;;;22.30;99.90;;;;;;5007227;28;20665;-79
2023/10/18 02:27:42;;;;;;;1.70;0.47;;;22.60;99.90;;;;;;4994643;28;20207;-78
2023/10/18 02:30:17;;;;;;;1.65;0.60;;;22.90;99.90;;;;;;5008907;28;20292;-79
2023/10/18 02:35:58;;;;;;;3.67;0.80;;;23.30;99.90;;;;;;5000129;28;20546;-80
2023/10/18 02:38:30;;;;;;;1.83;0.63;;;23.50;99.90;;;;;;5012195;28;20206;-80
2023/10/18 02:41:14;;;;;;;3.75;0.73;;;23.20;97.30;;;;;;5014556;28;20657;-80
2023/10/18 02:43:59;;;;;;;2.80;0.68;;;22.90;97.90;;;;;;5015963;28;20302;-80
2023/10/18 02:46:33;;;;;;;2.63;0.68;;;23.00;99.90;;;;;;5013069;28;20282;-81
2023/10/18 02:49:08;;;;;;;2.63;0.47;;;23.20;97.60;;;;;;5012334;28;20210;-81
2023/10/18 02:51:43;;;;;;;4.68;0.80;;;23.40;98.00;;;;;;5010974;28;20212;-79
2023/10/18 02:54:39;;;;;;;3.35;0.70;;;23.20;96.00;;;;;;5010329;28;20664;-80
2023/10/18 02:57:20;;;;;;;3.15;0.95;;;22.90;96.70;;;;;;5014474;28;20194;-80
2023/10/18 03:00:10;;;;;;;3.80;0.50;;;22.90;97.50;;;;;;5010172;28;20214;-79
2023/10/18 03:02:51;;;;;;;0.95;0.40;;;22.90;97.80;;;;;;5018392;28;20569;-80
2023/10/18 03:05:32;;;;;;;2.08;0.50;;;22.70;97.40;;;;;;5010290;28;20275;-80
2023/10/18 03:08:28;;;;;;;3.42;0.60;;;22.50;96.50;;;;;;5024266;28;20257;-79
2023/10/18 03:11:04;;;;;;;2.80;0.73;;;22.70;99.60;;;;;;5013718;28;20202;-79
2023/10/18 03:13:43;;;;;;;3.05;0.70;;;23.00;98.70;;;;;;5011784;28;20284;-80
2023/10/18 03:16:38;;;;;;;4.22;0.70;;;23.20;98.60;;;;;;5009273;28;20241;-80
2023/10/18 03:19:22;;;;;;;3.58;0.73;;;22.90;97.00;;;;;;5000686;28;20240;-80
2023/10/18 03:22:03;;;;;;;4.75;0.75;;;22.90;97.60;;;;;;5011480;28;20194;-79
2023/10/18 03:34:15;;;;;;;4.35;1.10;;;23.40;96.60;;;;;;4992328;28;20289;-80
2023/10/18 03:36:54;;;;;;;2.28;0.70;;;23.70;96.70;;;;;;4993860;28;20237;-80
2023/10/18 03:39:53;;;;;;;1.88;0.80;;;23.70;94.00;;;;;;5006478;28;20631;-79
2023/10/18 03:46:07;;;;;;;2.35;0.60;;;23.90;94.90;;;;;;5009132;28;20271;-80
2023/10/18 03:57:54;;;;;;;2.55;0.70;;;23.80;93.00;;;;;;5017880;28;20194;-79
2023/10/18 04:00:37;;;;;;;4.22;0.65;;;23.90;93.00;;;;;;5022214;28;20191;-80
2023/10/18 04:03:12;;;;;;;2.72;0.80;;;23.80;92.80;;;;;;5013181;28;20190;-79
2023/10/18 04:05:57;;;;;;;4.55;0.98;;;24.00;93.40;;;;;;5023973;28;20197;-79
2023/10/18 04:08:32;;;;;;;1.95;0.68;;;24.10;93.70;;;;;;5017587;28;20210;-79
2023/10/18 04:11:13;;;;;;;3.22;0.63;;;23.80;92.70;;;;;;5023152;28;20190;-80
2023/10/18 04:13:50;;;;;;;2.75;0.60;;;23.50;93.50;;;;;;5030517;28;20205;-80
2023/10/18 04:19:51;;;;;;;2.33;0.80;;;23.40;93.10;;;;;;5011069;28;20217;-79
2023/10/18 04:22:27;;;;;;;3.53;0.70;;;23.40;93.30;;;;;;4995305;28;20195;-79
2023/10/18 04:24:59;;;;;;;5.18;0.90;;;23.10;93.60;;;;;;4992349;28;20202;-80
2023/10/18 04:31:21;;;;;;;2.53;0.55;;;23.20;95.20;;;;;;4996087;28;20740;-79
2023/10/18 04:33:59;;;;;;;2.90;0.70;;;23.40;94.90;;;;;;5012961;28;20201;-79
2023/10/18 04:39:18;;;;;;;1.40;0.40;;;23.70;94.50;;;;;;5011584;28;20684;-79
2023/10/18 04:41:56;;;;;;;4.43;0.57;;;23.80;94.60;;;;;;5010038;28;20206;-80
2023/10/18 04:44:47;;;;;;;3.67;0.68;;;23.60;94.60;;;;;;5014048;28;20284;-79
2023/10/18 05:00:11;;;;;;;3.97;0.60;;;22.80;97.40;;;;;;5014720;28;20201;-79
2023/10/18 05:09:29;;;;;;;2.97;0.93;;;23.70;93.90;;;;;;5013549;28;20198;-79
2023/10/18 05:15:36;;;;;;;1.33;0.50;;;24.00;94.30;;;;;;5129943;27;20350;-79
2023/10/18 05:18:23;;;;;;;3.72;1.00;;;24.50;92.60;;;;;;5123871;27;20231;-78
2023/10/18 05:26:55;;;;;;;4.07;0.82;;;25.40;89.30;;;;;;5086921;22;20227;-81
2023/10/18 05:32:54;;;;;;;3.67;0.90;;;25.60;87.30;;;;;;5080419;28;20195;-78
2023/10/18 05:35:43;;;;;;;4.60;0.85;;;25.70;85.90;;;;;;5084015;28;20713;-80
2023/10/18 05:38:48;;;;;;;2.00;0.70;;;25.80;86.10;;;;;;5070765;28;20203;-79
2023/10/18 05:41:46;;;;;;;2.85;0.75;;;26.20;85.00;;;;;;5084979;28;20199;-79
2023/10/18 05:44:16;;;;;;;1.33;0.60;;;26.60;82.40;;;;;;5087919;28;20593;-79
2023/10/18 05:46:50;;;;;;;3.00;0.40;;;26.40;79.30;;;;;;5080012;28;20250;-79
2023/10/18 05:49:25;;;;;;;4.07;0.68;;;26.50;79.30;;;;;;5068673;28;20200;-79
2023/10/18 05:52:36;;;;;;;1.63;0.60;;;26.50;77.30;;;;;;5071395;28;20223;-80
2023/10/18 05:55:22;;;;;;;4.25;0.80;;;26.60;77.00;;;;;;5089479;28;20261;-80
2023/10/18 05:57:54;;;;;;;1.63;0.60;;;26.50;76.50;;;;;;5076931;28;20245;-80
2023/10/18 06:00:25;;;;;;;3.25;0.70;;;26.50;76.10;;;;;;5090151;28;20312;-82
2023/10/18 06:03:10;;;;;;;2.35;0.70;;;26.60;76.90;;;;;;5080498;28;20202;-81
2023/10/18 06:05:58;;;;;;;2.20;0.57;;;26.60;74.30;;;;;;5073648;28;20192;-80
2023/10/18 06:08:34;;;;;;;2.78;0.57;;;26.70;73.30;;;;;;5080100;28;20189;-80
2023/10/18 06:11:19;;;;;;;3.40;0.57;;;27.10;73.10;;;;;;5082306;28;20198;-80
2023/10/18 06:16:51;;;;;;;2.17;0.60;;;27.10;71.10;;;;;;5079429;28;20212;-78
2023/10/18 06:19:31;;;;;;;5.25;0.60;;;27.10;70.30;;;;;;5079231;28;20188;-79
2023/10/18 06:22:28;;;;;;;2.65;0.70;;;27.40;69.30;;;;;;5084583;28;20724;-79
2023/10/18 06:28:32;;;;;;;4.30;0.47;;;27.10;67.90;;;;;;5062614;28;20265;-79
2023/10/18 06:31:28;;;;;;;4.68;0.80;;;27.10;69.10;;;;;;5056686;28;20303;-80
2023/10/18 06:34:04;;;;;;;2.00;0.52;;;27.40;69.00;;;;;;5072179;28;20265;-80
2023/10/18 06:36:38;;;;;;;3.67;0.77;;;27.60;66.50;;;;;;5055747;28;20200;-79
2023/10/18 06:39:27;;;;;;;3.05;0.77;;;27.70;66.60;;;;;;5058827;28;20238;-78
2023/10/18 06:41:59;;;;;;;3.22;0.70;;;27.80;66.20;;;;;;5052347;28;20203;-78
2023/10/18 06:44:30;;;;;;;1.10;0.50;;;27.70;64.40;;;;;;5057744;28;20620;-78
2023/10/18 06:47:06;;;;;;;1.23;0.50;;;27.90;64.60;;;;;;5059827;28;20188;-78
2023/10/18 06:49:36;;;;;;;1.83;0.60;;;27.80;64.80;;;;;;5054146;28;20655;-78
2023/10/18 06:52:08;;;;;;;3.03;0.60;;;27.70;64.70;;;;;;5056500;28;20203;-79
2023/10/18 06:54:55;;;;;;;2.67;0.73;;;27.70;64.40;;;;;;5058472;28;20196;-79
2023/10/18 07:01:01;;;;;;;2.20;0.60;;;27.40;65.40;;;;;;5066289;28;20549;-79
2023/10/18 07:03:53;;;;;;;3.15;0.60;;;27.60;64.50;;;;;;5057313;28;20200;-79
2023/10/18 07:07:24;;;;;;;1.52;0.60;;;27.70;63.60;;;;;;5069560;28;20534;-79
2023/10/18 07:10:53;;;;;;;2.90;0.70;;;27.50;64.60;;;;;;5071092;28;20185;-80
2023/10/18 07:13:48;;;;;;;3.13;0.90;;;27.10;65.70;;;;;;5066110;28;20214;-79
2023/10/18 07:19:58;;;;;;;2.15;0.55;;;27.00;66.70;;;;;;5114853;27;20637;-79
2023/10/18 07:22:44;;;;;;;3.58;0.75;;;26.50;68.20;;;;;;5100854;28;20621;-79
2023/10/18 07:25:20;;;;;;;4.07;0.57;;;25.70;70.20;;;;;;5101312;28;20266;-79
2023/10/18 07:27:50;;;;;;;2.78;0.60;;;25.30;72.10;;;;;;5110357;28;20244;-78
2023/10/18 07:33:40;;;;;;;4.95;0.70;;;24.10;78.70;;;;;;5031434;28;20211;-79
2023/10/18 07:36:44;;;;;;;4.85;0.70;;;23.50;81.50;;;;;;5053162;28;20197;-80
2023/10/18 07:40:07;;;;;;;4.93;0.90;;;23.10;86.30;;;;;;5064247;28;20708;-80
2023/10/18 07:43:12;;;;;;;3.20;0.63;;;22.60;90.60;;;;;;5070482;28;20196;-79
2023/10/18 07:46:10;;;;;;;3.00;0.63;;;22.30;91.80;;;;;;5063957;28;20293;-82
2023/10/18 07:48:48;;;;;;;4.78;1.00;;;22.10;92.60;;;;;;5071008;28;20199;-80
2023/10/18 07:51:25;;;;;;;2.55;0.95;;;21.70;95.00;;;;;;5064206;28;20199;-80
2023/10/18 07:53:59;;;;;;;4.45;1.17;;;21.50;95.80;;;;;;5057442;28;20203;-80
2023/10/18 07:56:32;;;;;;;3.33;0.90;;;21.40;97.20;;;;;;5063085;28;20279;-80
2023/10/18 08:02:12;;;;;;;2.88;0.60;;;21.10;98.70;;;;;;5053384;28;20565;-80
2023/10/18 08:04:44;;;;;;;3.22;1.00;;;21.00;99.50;;;;;;5047728;28;20745;-80
2023/10/18 08:07:27;;;;;;;2.47;0.80;;;20.90;99.90;;;;;;5055242;28;20189;-80
2023/10/18 08:10:07;;;;;;;2.47;0.90;;;20.70;99.90;;;;;;5044455;28;20196;-81
2023/10/18 08:12:38;;;;;;;4.55;0.90;;;20.70;99.90;;;;;;5049137;28;20304;-81
2023/10/18 08:15:13;;;;;;;3.70;0.93;;;20.60;99.90;;;;;;5062084;28;20200;-81
2023/10/18 08:17:59;;;;;;;1.80;0.77;;;20.60;99.90;;;;;;5066047;28;20212;-81
2023/10/18 08:26:30;;;;;;;2.15;1.00;;;20.30;99.90;;;;;;5079600;28;20248;-79
2023/10/18 08:29:07;;;;;;;3.03;1.08;;;20.20;99.90;;;;;;5074232;28;20199;-80
2023/10/18 08:31:39;;;;;;;3.00;1.00;;;20.20;99.90;;;;;;5039842;28;20485;-80
2023/10/18 08:37:11;;;;;;;1.83;0.90;;;19.90;99.90;;;;;;5022610;28;20209;-80
2023/10/18 08:40:06;;;;;;;1.73;0.88;;;19.90;99.90;;;;;;5015706;28;20762;-81
2023/10/18 08:43:28;;;;;;;3.03;1.00;;;19.90;99.90;;;;;;5013907;28;20206;-80
2023/10/18 08:46:14;;;;;;;5.63;1.00;;;19.80;99.90;;;;;;5014917;28;20228;-80
2023/10/18 08:49:03;;;;;;;2.05;0.80;;;19.80;99.90;;;;;;5031615;28;20894;-80
2023/10/18 08:51:46;;;;;;;1.67;0.98;;;19.70;99.90;;;;;;5034577;28;20209;-80
2023/10/18 08:54:22;;;;;;;7.68;2.42;;;19.70;99.90;;;;;;5033774;28;20213;-80
2023/10/18 08:57:34;;;;;;;4.28;1.60;;;19.60;99.90;;;;;;5033500;28;20612;-81
2023/10/18 09:01:02;;;;;;;3.60;1.02;;;19.60;99.90;;;;;;5000143;28;20202;-79
2023/10/18 09:03:27;;;;;;;2.47;0.80;;;19.70;99.90;;;;;;5035314;28;20205;-80
2023/10/18 09:09:17;;;;;;;2.83;1.23;;;19.60;99.90;;;;;;5035790;28;20281;-80
2023/10/18 09:12:14;;;;;;;2.78;1.20;;;19.50;99.90;;;;;;5034124;28;20676;-79
2023/10/18 09:15:26;;;;;;;4.43;1.30;;;19.40;99.90;;;;;;5036521;28;20205;-79
2023/10/18 09:31:22;;;;;;;2.17;0.98;;;19.40;99.90;;;;;;4860294;27;6733976;-80
2023/10/18 09:40:05;;;;;;;5.45;1.15;;;19.30;99.90;;;;;;5059459;28;20219;-80
2023/10/18 09:42:38;;;;;;;4.75;1.15;;;19.30;99.90;;;;;;5061754;28;20200;-83
2023/10/18 09:45:28;;;;;;;4.75;1.17;;;19.30;99.90;;;;;;5066601;28;20196;-82
2023/10/18 09:48:02;;;;;;;2.05;0.90;;;19.20;99.90;;;;;;5055908;28;20192;-80
2023/10/18 09:51:01;;;;;;;7.20;1.70;;;19.20;99.90;;;;;;5067999;28;20252;-79
2023/10/18 09:54:14;;;;;;;1.92;0.88;;;19.20;99.90;;;;;;5073045;28;20204;-81
2023/10/18 09:57:25;;;;;;;3.83;1.05;;;19.20;99.90;;;;;;5048497;28;20591;-80
2023/10/18 10:03:56;;;;;;;2.42;0.82;;;19.20;99.90;;;;;;5061962;28;20203;-80
2023/10/18 10:07:27;;;;;;;2.80;1.10;;;19.20;99.90;;;;;;5059074;28;20227;-81
2023/10/18 10:10:17;;;;;;;3.33;1.25;;;19.20;99.90;;;;;;5054976;28;20412;-79
2023/10/18 10:13:08;;;;;;;2.83;1.05;;;19.00;99.90;;;;;;5075406;28;20265;-79
2023/10/18 10:21:34;;;;;;;3.15;1.10;;;19.10;99.90;;;;;;5060114;28;20299;-80
2023/10/18 10:27:59;;;;;;;2.08;0.88;;;19.00;99.90;;;;;;5058510;28;20205;-79
2023/10/18 10:30:56;;;;;;;3.88;0.88;;;19.00;99.90;;;;;;5057834;28;20224;-80
2023/10/18 10:46:47;;;;;;;2.33;0.80;;;18.90;99.90;;;;;;5031612;28;20212;-80
2023/10/18 10:53:05;;;;;;;3.38;0.73;;;19.00;99.90;;;;;;5015856;28;20284;-80
2023/10/18 11:02:33;;;;;;;2.17;0.57;;;19.00;99.90;;;;;;5023194;28;20671;-82
2023/10/18 11:11:31;;;;;;;2.58;0.90;;;19.00;99.90;;;;;;5016301;28;20209;-80
2023/10/18 11:14:05;;;;;;;2.67;0.70;;;18.90;99.90;;;;;;5016031;28;20205;-80
2023/10/18 11:16:36;;;;;;;2.90;0.80;;;19.00;99.90;;;;;;5017599;28;20213;-81
2023/10/18 11:19:08;;;;;;;3.13;0.88;;;18.90;99.90;;;;;;5032470;28;20594;-80
2023/10/18 11:21:41;;;;;;;5.32;0.80;;;18.90;99.90;;;;;;5033634;28;20243;-79
2023/10/18 11:24:16;;;;;;;2.83;0.50;;;18.90;99.90;;;;;;5022701;28;20194;-80
2023/10/18 11:26:47;;;;;;;2.30;0.60;;;18.90;99.90;;;;;;5021780;28;20615;-82
2023/10/18 11:29:24;;;;;;;4.78;0.80;;;18.90;99.90;;;;;;5036724;28;20205;-80
2023/10/18 11:31:58;;;;;;;4.95;0.93;;;18.80;99.90;;;;;;5020381;28;20284;-79
2023/10/18 11:34:29;;;;;;;3.63;0.88;;;18.80;99.90;;;;;;5034745;28;20194;-79
2023/10/18 11:37:03;;;;;;;3.28;0.70;;;18.70;99.90;;;;;;5038678;28;20194;-80
2023/10/18 11:39:34;;;;;;;3.28;0.95;;;18.70;99.90;;;;;;5026471;28;20217;-79
2023/10/18 11:42:06;;;;;;;4.53;1.02;;;18.70;99.90;;;;;;5021676;28;20193;-79
2023/10/18 11:44:39;;;;;;;3.17;0.55;;;18.70;99.90;;;;;;5030509;28;20281;-80
2023/10/18 11:47:20;;;;;;;2.47;0.60;;;18.70;99.90;;;;;;5035028;28;20197;-79
2023/10/18 11:49:53;;;;;;;2.28;0.60;;;18.70;99.90;;;;;;5028169;28;20201;-80
2023/10/18 11:52:26;;;;;;;3.05;0.85;;;18.70;99.90;;;;;;5030913;28;20201;-79
2023/10/18 11:55:09;;;;;;;2.75;0.57;;;18.70;99.90;;;;;;5031650;28;20201;-78
2023/10/18 11:57:40;;;;;;;3.70;0.73;;;18.80;99.90;;;;;;5027377;28;20251;-78
2023/10/18 12:00:35;;;;;;;2.80;0.70;;;18.80;99.90;;;;;;5032078;28;20213;-80
2023/10/18 12:03:08;;;;;;;1.38;0.60;;;18.80;99.90;;;;;;5030271;28;20737;-77
2023/10/18 12:05:42;;;;;;;2.65;0.77;;;18.80;99.90;;;;;;5031242;28;20197;-80
2023/10/18 12:08:16;;;;;;;2.40;0.60;;;18.80;99.90;;;;;;5032912;28;20285;-78
2023/10/18 12:10:47;;;;;;;3.42;0.77;;;18.80;99.90;;;;;;5017024;28;20217;-79
2023/10/18 12:13:20;;;;;;;4.32;0.73;;;18.80;99.90;;;;;;5032272;28;20228;-79
2023/10/18 12:15:52;;;;;;;5.20;0.77;;;18.80;99.90;;;;;;5024202;28;20613;-79
2023/10/18 12:18:23;;;;;;;3.30;0.57;;;18.80;99.90;;;;;;5026776;28;20197;-79
2023/10/18 12:20:54;;;;;;;1.33;0.50;;;18.80;99.90;;;;;;5028600;28;20229;-78
2023/10/18 12:23:27;;;;;;;2.15;0.68;;;18.80;99.90;;;;;;5023101;28;20205;-78
2023/10/18 12:25:59;;;;;;;5.97;0.80;;;18.90;99.90;;;;;;5013349;28;20673;-79
2023/10/18 12:28:35;;;;;;;7.70;0.90;;;18.90;99.90;;;;;;5012769;28;20190;-78
2023/10/18 12:31:12;;;;;;;2.00;0.70;;;18.80;99.90;;;;;;5019662;28;20232;-79
2023/10/18 12:33:49;;;;;;;1.73;0.77;;;18.70;99.90;;;;;;5028159;28;20280;-79
2023/10/18 12:36:32;;;;;;;2.08;0.70;;;18.80;99.90;;;;;;5031605;28;20182;-77
2023/10/18 12:39:09;;;;;;;2.95;0.88;;;18.80;99.90;;;;;;5017133;28;20202;-77
2023/10/18 12:41:41;;;;;;;2.50;0.85;;;18.80;99.90;;;;;;5025621;28;20211;-79
2023/10/18 12:44:17;;;;;;;3.08;0.90;;;18.80;99.90;;;;;;5013395;28;20276;-78
2023/10/18 12:46:50;;;;;;;4.88;1.35;;;18.80;99.90;;;;;;5018078;28;20565;-77
2023/10/18 12:49:24;;;;;;;5.30;1.20;;;18.80;99.90;;;;;;5026777;28;20560;-78
2023/10/18 12:52:00;;;;;;;3.10;1.08;;;18.60;99.90;;;;;;5023126;28;20201;-77
2023/10/18 12:54:33;;;;;;;3.90;1.33;;;18.50;99.90;;;;;;5030445;28;20201;-79
2023/10/18 12:57:10;;;;;;;5.97;1.45;;;18.50;99.90;;;;;;5031082;28;20197;-80
2023/10/18 12:59:59;;;;;;;4.28;1.23;;;18.50;99.90;;;;;;5030690;28;20260;-79
2023/10/18 13:05:20;;;;;;;4.50;1.17;;;18.40;99.90;;;;;;5025439;28;20622;-77
2023/10/18 13:07:53;;;;;;;3.75;1.17;;;18.40;99.90;;;;;;5030513;28;20193;-77
2023/10/18 13:10:31;;;;;;;3.00;1.17;;;18.40;99.90;;;;;;5034807;28;20201;-79
2023/10/18 13:13:04;;;;;;;3.35;1.30;;;18.40;99.90;;;;;;5015676;28;20201;-77
2023/10/18 13:15:35;;;;;;;3.58;1.40;;;18.40;99.90;;;;;;5021275;28;20657;-79
2023/10/18 13:18:06;;;;;;;5.05;1.63;;;18.40;99.90;;;;;;5028979;28;20649;-80
2023/10/18 13:20:37;;;;;;;6.05;1.30;;;18.30;99.90;;;;;;5012088;28;20313;-79
2023/10/18 13:23:08;;;;;;;3.90;1.38;;;18.30;99.90;;;;;;5010584;28;20208;-78
2023/10/18 13:25:51;;;;;;;6.22;1.50;;;18.40;99.90;;;;;;5010609;28;20220;-80
2023/10/18 13:28:33;;;;;;;2.15;1.10;;;18.40;99.90;;;;;;5010443;28;20256;-80
2023/10/18 13:31:08;;;;;;;5.63;1.40;;;18.40;99.90;;;;;;5014750;28;20222;-78
2023/10/18 13:33:40;;;;;;;5.78;1.20;;;18.40;99.90;;;;;;5024531;28;20205;-78
2023/10/18 13:36:14;;;;;;;3.45;1.30;;;18.30;99.90;;;;;;5030126;28;20225;-77
2023/10/18 13:38:45;;;;;;;2.72;1.15;;;18.30;99.90;;;;;;5012533;28;20202;-78
2023/10/18 13:41:18;;;;;;;5.85;1.40;;;18.30;99.90;;;;;;5011122;28;20229;-78
2023/10/18 13:43:49;;;;;;;3.45;1.10;;;18.20;99.90;;;;;;5010613;28;20288;-78
2023/10/18 13:46:22;;;;;;;5.50;1.40;;;18.30;99.90;;;;;;5010421;28;20259;-78
2023/10/18 13:48:53;;;;;;;6.13;1.45;;;18.30;99.90;;;;;;5026929;28;20204;-78
2023/10/18 13:51:24;;;;;;;3.67;1.38;;;18.30;99.90;;;;;;5021177;28;20205;-78
2023/10/18 13:53:55;;;;;;;3.45;1.20;;;18.20;99.90;;;;;;5029940;28;20558;-77
2023/10/18 13:56:29;;;;;;;7.15;1.67;;;18.20;99.90;;;;;;5030389;28;20212;-79
2023/10/18 13:59:01;;;;;;;3.88;1.55;;;18.10;99.90;;;;;;5030314;28;20228;-79
2023/10/18 14:01:34;;;;;;;3.55;1.50;;;18.20;99.90;;;;;;5029741;28;20221;-79
2023/10/18 14:04:05;;;;;;;3.13;1.40;;;18.20;99.90;;;;;;5029590;28;20240;-79
2023/10/18 14:06:36;;;;;;;3.70;1.40;;;18.20;99.90;;;;;;5034542;28;20546;-78
2023/10/18 14:09:10;;;;;;;4.07;1.20;;;18.20;99.90;;;;;;5033005;28;20251;-78
2023/10/18 14:11:44;;;;;;;3.92;1.40;;;18.20;99.90;;;;;;5022733;28;20705;-78
2023/10/18 14:14:14;;;;;;;3.78;1.30;;;18.10;99.90;;;;;;5016122;28;20613;-78
2023/10/18 14:16:45;;;;;;;4.70;1.60;;;18.20;99.90;;;;;;5033591;28;20190;-79
2023/10/18 14:19:18;;;;;;;3.53;1.13;;;18.20;99.90;;;;;;5031758;28;20217;-78
2023/10/18 14:21:50;;;;;;;3.25;1.63;;;18.10;99.90;;;;;;5028571;28;20220;-78
2023/10/18 14:24:25;;;;;;;10.27;1.90;;;18.10;99.90;;;;;;5032452;28;20213;-78
2023/10/18 14:26:59;;;;;;;4.18;1.50;;;18.00;99.90;;;;;;5021726;28;20253;-79
2023/10/18 14:29:29;;;;;;;6.10;1.75;;;17.90;99.90;;;;;;5014893;28;20233;-78
2023/10/18 14:32:02;;;;;;;4.15;1.63;;;17.90;99.90;;;;;;5018035;28;20194;-78
2023/10/18 14:34:33;;;;;;;3.75;1.67;;;17.80;99.90;;;;;;5041929;28;20209;-78
2023/10/18 14:37:04;;;;;;;6.38;1.67;;;17.90;99.90;;;;;;5048683;28;20284;-79
2023/10/18 14:39:34;;;;;;;4.13;1.77;;;18.00;99.90;;;;;;5033011;28;20201;-79
2023/10/18 14:42:08;;;;;;;2.88;1.50;;;18.00;99.90;;;;;;5024533;28;20639;-79
2023/10/18 14:44:42;;;;;;;4.30;1.35;;;18.00;99.90;;;;;;5013744;28;20193;-79
2023/10/18 14:47:13;;;;;;;3.92;1.58;;;18.00;99.90;;;;;;5019316;28;20197;-78
2023/10/18 14:49:43;;;;;;;4.15;1.75;;;18.00;99.90;;;;;;5031953;28;20252;-80
2023/10/18 14:52:19;;;;;;;3.38;1.67;;;18.00;99.90;;;;;;5025485;28;20549;-78
2023/10/18 14:54:51;;;;;;;4.63;1.77;;;18.00;99.90;;;;;;5032796;28;20247;-78
2023/10/18 14:57:24;;;;;;;3.92;1.65;;;18.00;99.90;;;;;;5017625;28;20659;-78
2023/10/18 14:59:56;;;;;;;4.30;1.50;;;18.00;99.90;;;;;;5027012;28;20280;-78
2023/10/18 15:02:27;;;;;;;4.00;1.75;;;17.90;99.90;;;;;;5024886;28;20197;-78
2023/10/18 15:04:58;;;;;;;4.47;1.30;;;18.00;99.90;;;;;;5021393;28;20194;-78
2023/10/18 15:07:29;;;;;;;5.38;1.38;;;18.00;99.90;;;;;;5024673;28;20192;-77
2023/10/18 15:09:59;;;;;;;2.83;1.20;;;18.00;99.90;;;;;;5013183;28;20198;-78
2023/10/18 15:12:32;;;;;;;4.18;1.45;;;18.00;99.90;;;;;;5012757;28;20560;-78
2023/10/18 15:15:03;;;;;;;4.32;1.33;;;18.00;99.90;;;;;;5012767;28;20415;-77
2023/10/18 15:17:33;;;;;;;4.85;1.50;;;17.90;99.90;;;;;;5031309;28;20197;-78
2023/10/18 15:20:05;;;;;;;4.50;1.33;;;17.80;99.90;;;;;;5032783;28;20228;-78
2023/10/18 15:22:36;;;;;;;3.80;1.30;;;17.70;99.90;;;;;;5032020;28;20280;-78
2023/10/18 15:25:09;;;;;;;2.67;1.30;;;17.70;99.90;;;;;;5032570;28;20563;-78
2023/10/18 15:27:41;;;;;;;5.63;1.40;;;17.70;99.90;;;;;;5032505;28;20596;-78
2023/10/18 15:30:16;;;;;;;3.50;1.35;;;17.60;99.90;;;;;;5031162;28;20232;-77
2023/10/18 15:32:47;;;;;;;3.65;1.33;;;17.60;99.90;;;;;;5024960;28;20196;-78
2023/10/18 15:35:17;;;;;;;5.68;1.70;;;17.60;99.90;;;;;;5045327;28;20228;-77
2023/10/18 15:37:48;;;;;;;3.30;1.40;;;17.60;99.90;;;;;;5039282;28;20178;-78
2023/10/18 15:40:21;;;;;;;7.30;1.50;;;17.50;99.90;;;;;;5032358;28;20202;-78
2023/10/18 15:42:53;;;;;;;3.63;1.40;;;17.50;99.90;;;;;;5031486;28;20197;-78
2023/10/18 15:45:24;;;;;;;6.22;1.77;;;17.50;99.90;;;;;;5031657;28;20209;-78
2023/10/18 15:47:55;;;;;;;4.63;1.55;;;17.50;99.90;;;;;;5022083;28;20571;-78
2023/10/18 15:50:26;;;;;;;5.63;1.40;;;17.50;99.90;;;;;;5020141;28;20205;-79
2023/10/18 15:52:56;;;;;;;5.75;1.25;;;17.50;99.90;;;;;;5028466;28;20208;-78
2023/10/18 15:55:27;;;;;;;6.55;1.85;;;17.50;99.90;;;;;;5027964;28;20197;-77
2023/10/18 15:58:00;;;;;;;7.20;1.50;;;17.50;99.90;;;;;;5031950;28;20202;-80
2023/10/18 16:00:31;;;;;;;4.45;1.45;;;17.50;99.90;;;;;;5031340;28;20212;-78
2023/10/18 16:03:02;;;;;;;3.95;1.63;;;17.50;99.90;;;;;;5029737;28;20193;-79
2023/10/18 16:05:35;;;;;;;6.05;1.50;;;17.50;99.90;;;;;;5031543;28;20284;-79
2023/10/18 16:08:06;;;;;;;6.20;1.55;;;17.50;99.90;;;;;;5030846;28;20289;-79
2023/10/18 16:10:38;;;;;;;4.88;1.30;;;17.60;99.90;;;;;;5024600;28;20240;-78
2023/10/18 16:13:11;;;;;;;4.28;1.70;;;17.60;99.90;;;;;;5011747;28;20281;-77
2023/10/18 16:15:42;;;;;;;4.03;1.48;;;17.50;99.90;;;;;;5017126;28;20703;-78
2023/10/18 16:18:13;;;;;;;3.85;1.40;;;17.50;99.90;;;;;;5017561;28;20198;-78
2023/10/18 16:20:43;;;;;;;3.95;1.38;;;17.60;99.90;;;;;;5021343;28;20624;-78
2023/10/18 16:23:14;;;;;;;3.90;1.63;;;17.60;99.90;;;;;;5030375;28;20212;-78
2023/10/18 16:25:45;;;;;;;6.07;1.67;;;17.50;99.90;;;;;;5012213;28;20205;-78
2023/10/18 16:28:18;;;;;;;3.83;1.40;;;17.50;99.90;;;;;;5011539;28;20202;-78
2023/10/18 16:30:49;;;;;;;4.07;1.55;;;17.50;99.90;;;;;;5011402;28;20313;-77
2023/10/18 16:33:20;;;;;;;3.35;1.60;;;17.40;99.90;;;;;;5025511;28;20200;-77
2023/10/18 16:35:57;;;;;;;4.30;1.60;;;17.40;99.90;;;;;;5050930;28;20180;-76
2023/10/18 16:38:29;;;;;;;4.18;1.40;;;17.30;99.90;;;;;;5017207;28;20186;-77
2023/10/18 16:41:07;;;;;;;6.00;1.35;;;17.30;99.90;;;;;;5022819;28;20226;-77
2023/10/18 16:43:41;;;;;;;7.80;1.85;;;17.30;99.90;;;;;;5025612;28;20229;-77
2023/10/18 16:46:13;;;;;;;2.78;1.30;;;17.30;99.90;;;;;;5028070;28;20279;-77
2023/10/18 16:48:46;;;;;;;4.13;1.45;;;17.30;99.90;;;;;;5026491;28;20251;-77
2023/10/18 16:51:16;;;;;;;2.13;1.38;;;17.20;99.90;;;;;;5027694;28;20291;-78
2023/10/18 16:53:49;;;;;;;5.90;1.58;;;17.20;99.90;;;;;;5011136;28;20268;-77
2023/10/18 16:56:20;;;;;;;6.30;1.67;;;17.20;99.90;;;;;;5018810;28;20185;-77